createdAt,value
2023-06-03T00:00:57.924Z,62.28
2023-06-03T00:03:26.057Z,62.05
2023-06-03T00:05:54.345Z,61.79
2023-06-03T00:08:22.637Z,61.68
2023-06-03T00:10:50.728Z,61.85
2023-06-03T00:13:18.812Z,62.85
2023-06-03T00:15:49.124Z,62.30
2023-06-03T00:18:17.319Z,63.08
2023-06-03T00:20:48.341Z,63.46
2023-06-03T00:23:17.702Z,63.67
2023-06-03T00:25:46.202Z,63.56
2023-06-03T00:28:14.479Z,63.70
2023-06-03T00:30:42.320Z,64.22
2023-06-03T00:33:12.016Z,64.28
2023-06-03T00:35:40.428Z,63.02
2023-06-03T00:38:08.588Z,64.32
2023-06-03T00:40:37.099Z,63.99
2023-06-03T00:43:05.088Z,64.77
2023-06-03T00:45:33.016Z,63.65
2023-06-03T00:48:01.931Z,65.55
2023-06-03T00:50:31.442Z,65.79
2023-06-03T00:53:01.641Z,63.93
2023-06-03T00:55:29.663Z,65.61
2023-06-03T00:57:58.186Z,64.62
2023-06-03T01:00:26.736Z,62.89
2023-06-03T01:02:57.433Z,63.30
2023-06-03T01:05:26.260Z,64.07
2023-06-03T01:08:02.618Z,62.73
2023-06-03T01:10:43.169Z,62.96
2023-06-03T01:13:18.893Z,62.37
2023-06-03T01:15:50.530Z,60.89
2023-06-03T01:18:19.846Z,61.67
2023-06-03T01:20:49.294Z,61.11
2023-06-03T01:23:25.169Z,62.84
2023-06-03T01:25:57.760Z,61.20
2023-06-03T01:28:26.749Z,61.48
2023-06-03T01:30:55.081Z,62.89
2023-06-03T01:33:24.425Z,63.37
2023-06-03T01:35:54.906Z,62.79
2023-06-03T01:38:25.558Z,62.42
2023-06-03T01:40:54.250Z,62.63
2023-06-03T01:43:22.253Z,59.23
2023-06-03T01:45:50.965Z,58.94
2023-06-03T01:48:19.829Z,58.55
2023-06-03T01:50:47.861Z,57.75
2023-06-03T01:53:16.339Z,58.15
2023-06-03T01:55:45.595Z,57.04
2023-06-03T01:58:13.464Z,56.75
2023-06-03T02:00:42.788Z,57.12
2023-06-03T02:03:10.649Z,56.66
2023-06-03T02:05:38.563Z,56.68
2023-06-03T02:08:09.225Z,56.76
2023-06-03T02:10:37.119Z,57.00
2023-06-03T02:13:06.505Z,56.82
2023-06-03T02:15:34.950Z,57.27
2023-06-03T02:18:04.757Z,56.79
2023-06-03T02:20:32.828Z,57.40
2023-06-03T02:23:03.799Z,57.36
2023-06-03T02:25:33.074Z,57.95
2023-06-03T02:28:01.161Z,58.05
2023-06-03T02:30:30.934Z,57.96
2023-06-03T02:32:58.883Z,58.35
2023-06-03T02:35:27.406Z,58.44
2023-06-03T02:37:55.324Z,59.10
2023-06-03T02:40:23.466Z,58.36
2023-06-03T02:42:51.831Z,58.33
2023-06-03T02:45:19.789Z,59.62
2023-06-03T02:47:49.146Z,60.23
2023-06-03T02:50:17.676Z,59.01
2023-06-03T02:52:49.033Z,58.84
2023-06-03T02:55:17.732Z,58.76
2023-06-03T02:57:45.646Z,58.59
2023-06-03T03:00:14.929Z,59.04
2023-06-03T03:02:43.621Z,60.03
2023-06-03T03:05:13.065Z,59.52
2023-06-03T03:07:41.475Z,58.39
2023-06-03T03:10:10.050Z,58.58
2023-06-03T03:12:38.106Z,58.03
2023-06-03T03:15:07.207Z,57.48
2023-06-03T03:17:35.551Z,57.38
2023-06-03T03:20:05.110Z,58.16
2023-06-03T03:22:35.535Z,57.15
2023-06-03T03:25:05.019Z,57.23
2023-06-03T03:27:33.215Z,56.61
2023-06-03T03:30:02.739Z,55.34
2023-06-03T03:32:30.898Z,54.20
2023-06-03T03:35:13.600Z,53.73
2023-06-03T03:37:43.252Z,52.73
2023-06-03T03:40:19.254Z,50.81
2023-06-03T03:42:52.035Z,49.73
2023-06-03T03:45:21.725Z,48.87
2023-06-03T03:47:51.020Z,47.60
2023-06-03T03:50:39.192Z,46.65
2023-06-03T03:53:10.191Z,45.46
2023-06-03T03:55:42.616Z,44.15
2023-06-03T03:58:24.731Z,43.10
2023-06-03T04:00:53.607Z,41.56
2023-06-03T04:03:25.640Z,42.04
2023-06-03T04:05:54.681Z,39.29
2023-06-03T04:08:44.390Z,38.61
2023-06-03T04:11:21.462Z,37.48
2023-06-03T04:13:50.426Z,39.12
2023-06-03T04:16:53.490Z,37.33
2023-06-03T04:19:31.984Z,36.96
2023-06-03T04:22:01.265Z,35.28
2023-06-03T04:24:31.434Z,34.54
2023-06-03T04:27:00.195Z,33.63
2023-06-03T04:29:28.553Z,33.82
2023-06-03T04:31:56.670Z,33.39
2023-06-03T04:34:28.740Z,32.24
2023-06-03T04:36:57.616Z,31.50
2023-06-03T04:39:25.993Z,31.21
2023-06-03T04:41:56.666Z,31.31
2023-06-03T04:44:24.594Z,30.34
2023-06-03T04:46:53.128Z,28.70
2023-06-03T04:49:21.246Z,30.63
2023-06-03T04:51:49.258Z,30.50
2023-06-03T04:54:20.053Z,28.91
2023-06-03T04:56:49.290Z,29.75
2023-06-03T04:59:18.649Z,27.70
2023-06-03T05:01:50.544Z,27.67
2023-06-03T05:04:20.922Z,26.66
2023-06-03T05:06:50.541Z,27.22
2023-06-03T05:09:19.110Z,25.83
2023-06-03T05:11:47.215Z,23.75
2023-06-03T05:14:15.926Z,25.19
2023-06-03T05:16:45.785Z,23.85
2023-06-03T05:19:13.713Z,23.95
2023-06-03T05:21:42.127Z,23.61
2023-06-03T05:24:10.631Z,24.92
2023-06-03T05:26:38.639Z,25.03
2023-06-03T05:29:07.474Z,25.84
2023-06-03T05:31:35.470Z,24.72
2023-06-03T05:34:05.489Z,25.17
2023-06-03T05:36:33.535Z,24.69
2023-06-03T05:39:01.521Z,22.58
2023-06-03T05:41:30.941Z,23.04
2023-06-03T05:43:58.980Z,23.33
2023-06-03T05:46:27.013Z,23.15
2023-06-03T05:48:55.542Z,22.79
2023-06-03T05:51:25.182Z,21.64
2023-06-03T05:53:53.499Z,24.03
2023-06-03T05:56:21.935Z,22.35
2023-06-03T05:58:50.036Z,21.90
2023-06-03T06:01:18.030Z,23.45
2023-06-03T06:03:46.491Z,22.19
2023-06-03T06:06:14.622Z,23.84
2023-06-03T06:08:44.772Z,22.56
2023-06-03T06:11:12.997Z,22.63
2023-06-03T06:13:40.763Z,23.91
2023-06-03T06:16:08.818Z,23.25
2023-06-03T06:18:37.461Z,22.72
2023-06-03T06:21:05.922Z,22.60
2023-06-03T06:23:34.290Z,21.85
2023-06-03T06:26:04.414Z,25.02
2023-06-03T06:28:33.595Z,22.47
2023-06-03T06:31:07.932Z,23.79
2023-06-03T06:33:37.650Z,25.60
2023-06-03T06:36:14.212Z,25.01
2023-06-03T06:38:42.293Z,22.51
2023-06-03T06:41:14.857Z,24.67
2023-06-03T06:43:42.887Z,27.38
2023-06-03T06:46:12.191Z,26.88
2023-06-03T06:48:41.312Z,25.58
2023-06-03T06:51:09.291Z,24.44
2023-06-03T06:53:37.885Z,23.74
2023-06-03T06:56:07.798Z,23.62
2023-06-03T06:58:41.296Z,25.15
2023-06-03T07:01:11.883Z,22.14
2023-06-03T07:03:39.975Z,24.26
2023-06-03T07:06:09.122Z,24.51
2023-06-03T07:08:37.388Z,25.53
2023-06-03T07:11:06.899Z,25.34
2023-06-03T07:13:35.566Z,25.76
2023-06-03T07:16:05.354Z,24.95
2023-06-03T07:18:35.280Z,24.95
2023-06-03T07:21:03.500Z,25.95
2023-06-03T07:23:32.762Z,29.03
2023-06-03T07:26:00.878Z,29.50
2023-06-03T07:28:31.653Z,24.94
2023-06-03T07:31:02.327Z,27.14
2023-06-03T07:33:33.002Z,24.59
2023-06-03T07:36:02.751Z,23.80
2023-06-03T07:38:58.237Z,25.36
2023-06-03T07:41:41.373Z,22.24
2023-06-03T07:44:11.155Z,22.06
2023-06-03T07:46:45.351Z,23.61
2023-06-03T07:49:16.650Z,22.37
2023-06-03T07:51:48.418Z,21.24
2023-06-03T07:54:16.765Z,21.60
2023-06-03T07:56:45.696Z,24.95
2023-06-03T07:59:15.166Z,24.00
2023-06-03T08:01:44.028Z,25.34
2023-06-03T08:04:29.053Z,23.22
2023-06-03T08:06:57.373Z,22.58
2023-06-03T08:09:29.186Z,26.42
2023-06-03T08:11:57.945Z,24.68
2023-06-03T08:14:27.223Z,20.85
2023-06-03T08:17:04.596Z,21.14
2023-06-03T08:19:35.101Z,21.38
2023-06-03T08:22:03.083Z,24.20
2023-06-03T08:24:31.945Z,24.68
2023-06-03T08:26:59.889Z,24.46
2023-06-03T08:29:28.287Z,23.74
2023-06-03T08:31:56.289Z,23.03
2023-06-03T08:34:24.319Z,23.13
2023-06-03T08:36:54.265Z,22.98
2023-06-03T08:39:22.335Z,21.55
2023-06-03T08:41:55.913Z,22.04
2023-06-03T08:44:29.262Z,22.84
2023-06-03T08:47:08.553Z,22.72
2023-06-03T08:49:42.819Z,22.54
2023-06-03T08:52:13.095Z,23.21
2023-06-03T08:54:43.167Z,23.03
2023-06-03T08:57:20.786Z,24.75
2023-06-03T08:59:53.590Z,25.76
2023-06-03T09:02:22.512Z,23.54
2023-06-03T09:04:55.041Z,21.51
2023-06-03T09:07:26.173Z,23.04
2023-06-03T09:09:56.600Z,23.51
2023-06-03T09:12:28.160Z,23.45
2023-06-03T09:14:56.289Z,23.51
2023-06-03T09:17:26.519Z,19.76
2023-06-03T09:19:55.144Z,19.89
2023-06-03T09:22:26.280Z,21.80
2023-06-03T09:24:54.729Z,21.73
2023-06-03T09:27:23.406Z,21.47
2023-06-03T09:29:52.183Z,21.46
2023-06-03T09:32:20.619Z,21.90
2023-06-03T09:34:50.025Z,21.41
2023-06-03T09:37:17.989Z,22.55
2023-06-03T09:39:47.651Z,22.94
2023-06-03T09:42:16.044Z,20.23
2023-06-03T09:44:51.742Z,20.08
2023-06-03T09:47:19.874Z,20.57
2023-06-03T09:50:06.004Z,22.32
2023-06-03T09:52:34.956Z,21.10
2023-06-03T09:55:06.328Z,20.60
2023-06-03T09:57:35.006Z,21.24
2023-06-03T10:00:11.571Z,20.54
2023-06-03T10:02:40.960Z,20.52
2023-06-03T10:05:28.382Z,19.05
2023-06-03T10:08:00.031Z,19.46
2023-06-03T10:10:32.781Z,19.94
2023-06-03T10:13:18.862Z,19.84
2023-06-03T10:15:47.685Z,20.24
2023-06-03T10:18:15.625Z,21.81
2023-06-03T10:20:44.665Z,20.49
2023-06-03T10:23:14.031Z,20.80
2023-06-03T10:25:46.354Z,20.23
2023-06-03T10:28:15.379Z,19.70
2023-06-03T10:30:43.817Z,18.60
2023-06-03T10:33:12.629Z,19.12
2023-06-03T10:35:41.619Z,20.43
2023-06-03T10:38:10.552Z,22.12
2023-06-03T10:40:38.768Z,22.74
2023-06-03T10:43:12.410Z,20.09
2023-06-03T10:45:40.808Z,19.87
2023-06-03T10:48:12.552Z,20.03
2023-06-03T10:50:56.341Z,19.80
2023-06-03T10:53:36.936Z,21.64
2023-06-03T10:56:10.639Z,22.41
2023-06-03T10:58:43.925Z,21.76
2023-06-03T11:01:13.073Z,20.86
2023-06-03T11:04:14.628Z,21.74
2023-06-03T11:06:42.755Z,21.65
2023-06-03T11:09:14.087Z,20.96
2023-06-03T11:12:07.024Z,21.63
2023-06-03T11:14:58.617Z,22.47
2023-06-03T11:17:28.906Z,23.13
2023-06-03T11:20:00.701Z,23.45
2023-06-03T11:22:48.060Z,21.55
2023-06-03T11:25:35.245Z,22.41
2023-06-03T11:28:37.336Z,21.97
2023-06-03T11:31:08.694Z,22.82
2023-06-03T11:33:37.640Z,23.04
2023-06-03T11:36:58.027Z,21.86
2023-06-03T11:39:27.626Z,22.46
2023-06-03T11:42:10.949Z,23.41
2023-06-03T11:44:41.418Z,23.63
2023-06-03T11:47:10.817Z,23.72
2023-06-03T11:49:41.505Z,23.62
2023-06-03T11:52:11.285Z,24.49
2023-06-03T11:54:42.094Z,24.79
2023-06-03T11:57:10.653Z,24.94
2023-06-03T11:59:43.237Z,25.17
2023-06-03T12:02:13.332Z,25.92
2023-06-03T12:04:41.537Z,25.72
2023-06-03T12:07:13.872Z,24.58
2023-06-03T12:09:41.975Z,24.49
2023-06-03T12:12:15.315Z,25.52
2023-06-03T12:14:45.695Z,25.67
2023-06-03T12:17:17.244Z,25.38
2023-06-03T12:19:46.737Z,25.16
2023-06-03T12:22:15.384Z,25.62
2023-06-03T12:24:45.141Z,25.75
2023-06-03T12:27:14.885Z,25.62
2023-06-03T12:29:44.597Z,25.50
2023-06-03T12:32:13.447Z,25.49
2023-06-03T12:34:44.329Z,24.26
2023-06-03T12:37:13.946Z,24.31
2023-06-03T12:39:48.814Z,24.66
2023-06-03T12:42:18.648Z,24.82
2023-06-03T12:44:49.210Z,25.32
2023-06-03T12:47:19.398Z,24.31
2023-06-03T12:50:07.229Z,25.31
2023-06-03T12:52:37.894Z,24.73
2023-06-03T12:55:08.286Z,24.66
2023-06-03T12:57:37.641Z,24.85
2023-06-03T13:00:10.421Z,24.24
2023-06-03T13:02:40.070Z,26.42
2023-06-03T13:05:09.774Z,25.05
2023-06-03T13:07:39.182Z,24.44
2023-06-03T13:10:10.424Z,24.43
2023-06-03T13:12:39.797Z,24.45
2023-06-03T13:15:08.908Z,24.80
2023-06-03T13:17:38.548Z,25.57
2023-06-03T13:20:09.689Z,24.52
2023-06-03T13:22:41.664Z,25.12
2023-06-03T13:25:10.529Z,24.23
2023-06-03T13:27:39.374Z,24.83
2023-06-03T13:30:09.127Z,24.41
2023-06-03T13:32:37.332Z,24.23
2023-06-03T13:35:06.691Z,25.85
2023-06-03T13:37:35.916Z,25.14
2023-06-03T13:40:05.780Z,25.27
2023-06-03T13:42:34.179Z,24.62
2023-06-03T13:45:08.306Z,24.59
2023-06-03T13:47:37.093Z,24.48
2023-06-03T13:50:05.551Z,24.07
2023-06-03T13:52:34.190Z,24.47
2023-06-03T13:55:02.785Z,23.51
2023-06-03T13:57:32.084Z,24.09
2023-06-03T14:00:00.849Z,24.61
2023-06-03T14:02:29.015Z,24.09
2023-06-03T14:04:57.612Z,23.78
2023-06-03T14:07:26.124Z,24.19
2023-06-03T14:09:54.608Z,24.47
2023-06-03T14:12:23.191Z,24.27
2023-06-03T14:14:52.955Z,24.03
2023-06-03T14:17:23.371Z,23.74
2023-06-03T14:19:51.756Z,23.30
2023-06-03T14:22:19.710Z,23.78
2023-06-03T14:24:47.779Z,23.57
2023-06-03T14:27:16.689Z,23.51
2023-06-03T14:29:45.047Z,23.71
2023-06-03T14:32:15.518Z,24.34
2023-06-03T14:34:43.789Z,23.97
2023-06-03T14:37:12.749Z,24.66
2023-06-03T14:39:41.264Z,24.00
2023-06-03T14:42:09.626Z,24.19
2023-06-03T14:44:40.667Z,24.43
2023-06-03T14:47:19.520Z,24.25
2023-06-03T14:49:47.674Z,24.70
2023-06-03T14:52:15.912Z,24.28
2023-06-03T14:54:45.472Z,23.76
2023-06-03T14:57:13.809Z,23.74
2023-06-03T14:59:42.816Z,23.57
2023-06-03T15:02:11.700Z,23.80
2023-06-03T15:04:41.645Z,24.33
2023-06-03T15:07:10.428Z,23.84
2023-06-03T15:09:38.609Z,23.80
2023-06-03T15:12:07.886Z,23.83
2023-06-03T15:14:36.556Z,24.13
2023-06-03T15:17:04.665Z,24.44
2023-06-03T15:19:32.742Z,24.21
2023-06-03T15:22:03.837Z,23.86
2023-06-03T15:24:31.706Z,24.27
2023-06-03T15:26:59.829Z,24.14
2023-06-03T15:29:28.401Z,23.68
2023-06-03T15:31:56.527Z,24.12
2023-06-03T15:34:24.725Z,23.54
2023-06-03T15:36:53.619Z,23.22
2023-06-03T15:39:23.045Z,23.57
2023-06-03T15:41:51.491Z,23.94
2023-06-03T15:44:20.796Z,23.83
2023-06-03T15:46:49.412Z,23.40
2023-06-03T15:49:18.003Z,23.61
2023-06-03T15:51:48.181Z,23.99
2023-06-03T15:54:16.524Z,23.73
2023-06-03T15:56:45.899Z,24.06
2023-06-03T15:59:16.245Z,23.96
2023-06-03T16:01:44.604Z,23.38
2023-06-03T16:04:13.081Z,23.50
2023-06-03T16:06:41.213Z,23.90
2023-06-03T16:09:11.292Z,24.00
2023-06-03T16:11:39.710Z,23.49
2023-06-03T16:14:09.487Z,23.36
2023-06-03T16:16:37.997Z,23.28
2023-06-03T16:19:06.706Z,23.28
2023-06-03T16:21:35.480Z,24.04
2023-06-03T16:24:03.652Z,23.31
2023-06-03T16:26:32.076Z,23.67
2023-06-03T16:29:00.723Z,23.50
2023-06-03T16:31:30.271Z,23.55
2023-06-03T16:34:01.054Z,23.59
2023-06-03T16:36:29.425Z,23.36
2023-06-03T16:38:57.699Z,23.08
2023-06-03T16:41:27.427Z,22.91
2023-06-03T16:43:55.371Z,23.07
2023-06-03T16:46:23.998Z,23.17
2023-06-03T16:48:54.190Z,23.17
2023-06-03T16:51:23.470Z,23.00
2023-06-03T16:53:51.936Z,23.16
2023-06-03T16:56:20.600Z,23.36
2023-06-03T16:58:48.713Z,23.23
2023-06-03T17:01:16.721Z,23.05
2023-06-03T17:03:45.281Z,22.91
2023-06-03T17:06:14.976Z,23.01
2023-06-03T17:08:42.971Z,22.72
2023-06-03T17:11:11.733Z,22.79
2023-06-03T17:13:41.448Z,22.89
2023-06-03T17:16:10.083Z,23.04
2023-06-03T17:18:38.171Z,22.94
2023-06-03T17:21:06.973Z,22.58
2023-06-03T17:23:37.209Z,22.49
2023-06-03T17:26:05.904Z,22.70
2023-06-03T17:28:34.265Z,22.55
2023-06-03T17:31:02.683Z,22.47
2023-06-03T17:33:30.663Z,22.52
2023-06-03T17:35:59.029Z,22.45
2023-06-03T17:38:27.193Z,22.66
2023-06-03T17:40:57.818Z,22.69
2023-06-03T17:43:26.449Z,22.74
2023-06-03T17:45:54.385Z,22.44
2023-06-03T17:48:22.562Z,22.43
2023-06-03T17:50:51.016Z,22.72
2023-06-03T17:53:19.050Z,23.18
2023-06-03T17:55:47.670Z,23.11
2023-06-03T17:58:17.793Z,23.27
2023-06-03T18:00:45.975Z,23.57
2023-06-03T18:03:13.955Z,23.55
2023-06-03T18:05:42.645Z,24.01
2023-06-03T18:08:10.759Z,23.79
2023-06-03T18:10:39.073Z,24.16
2023-06-03T18:13:07.780Z,24.01
2023-06-03T18:15:38.078Z,24.36
2023-06-03T18:18:06.432Z,24.13
2023-06-03T18:20:35.020Z,24.57
2023-06-03T18:23:03.011Z,24.50
2023-06-03T18:25:31.462Z,24.64
2023-06-03T18:27:59.982Z,24.63
2023-06-03T18:30:28.107Z,24.94
2023-06-03T18:32:57.696Z,25.12
2023-06-03T18:35:26.779Z,25.43
2023-06-03T18:37:54.930Z,25.56
2023-06-03T18:40:22.936Z,25.77
2023-06-03T18:42:57.201Z,25.88
2023-06-03T18:45:25.821Z,25.87
2023-06-03T18:47:54.215Z,26.28
2023-06-03T18:50:24.376Z,26.24
2023-06-03T18:52:53.179Z,26.39
2023-06-03T18:55:21.610Z,26.47
2023-06-03T18:57:50.043Z,28.54
2023-06-03T19:00:18.627Z,29.68
2023-06-03T19:02:46.712Z,31.09
2023-06-03T19:05:15.417Z,31.73
2023-06-03T19:07:44.715Z,32.77
2023-06-03T19:10:12.965Z,33.00
2023-06-03T19:12:41.739Z,33.29
2023-06-03T19:15:11.021Z,33.61
2023-06-03T19:17:39.739Z,33.55
2023-06-03T19:20:09.259Z,34.15
2023-06-03T19:22:39.580Z,34.40
2023-06-03T19:25:11.317Z,34.34
2023-06-03T19:27:40.129Z,34.50
2023-06-03T19:30:10.068Z,34.73
2023-06-03T19:32:41.022Z,35.28
2023-06-03T19:35:10.922Z,35.42
2023-06-03T19:37:39.972Z,35.92
2023-06-03T19:40:11.075Z,35.85
2023-06-03T19:42:39.276Z,36.10
2023-06-03T19:45:08.998Z,36.04
2023-06-03T19:47:37.633Z,36.39
2023-06-03T19:50:07.042Z,36.54
2023-06-03T19:52:43.822Z,36.58
2023-06-03T19:55:14.624Z,36.71
2023-06-03T19:57:42.731Z,36.54
2023-06-03T20:00:13.106Z,37.11
2023-06-03T20:02:41.972Z,36.71
2023-06-03T20:05:10.723Z,36.90
2023-06-03T20:07:43.276Z,37.39
2023-06-03T20:10:13.905Z,37.43
2023-06-03T20:12:42.333Z,37.53
2023-06-03T20:15:11.955Z,37.55
2023-06-03T20:17:41.758Z,37.74
2023-06-03T20:20:12.200Z,37.53
2023-06-03T20:22:40.553Z,38.12
2023-06-03T20:25:10.368Z,38.02
2023-06-03T20:27:40.770Z,38.49
2023-06-03T20:30:10.388Z,38.47
2023-06-03T20:32:38.621Z,38.45
2023-06-03T20:35:08.214Z,38.88
2023-06-03T20:37:36.626Z,38.72
2023-06-03T20:40:05.835Z,39.07
2023-06-03T20:42:35.120Z,39.19
2023-06-03T20:45:06.029Z,39.09
2023-06-03T20:47:35.149Z,39.08
2023-06-03T20:50:03.504Z,39.29
2023-06-03T20:52:31.823Z,39.33
2023-06-03T20:55:00.723Z,39.60
2023-06-03T20:57:29.267Z,39.39
2023-06-03T20:59:57.668Z,39.40
2023-06-03T21:02:28.186Z,39.25
2023-06-03T21:04:56.687Z,39.55
2023-06-03T21:07:24.734Z,39.70
2023-06-03T21:09:53.288Z,39.73
2023-06-03T21:12:21.568Z,39.66
2023-06-03T21:14:53.237Z,39.80
2023-06-03T21:17:22.384Z,40.07
2023-06-03T21:19:52.873Z,39.96
2023-06-03T21:22:22.602Z,40.13
2023-06-03T21:24:50.955Z,40.07
2023-06-03T21:27:19.400Z,40.08
2023-06-03T21:29:48.218Z,40.54
2023-06-03T21:32:16.215Z,40.57
2023-06-03T21:34:44.347Z,40.20
2023-06-03T21:37:14.327Z,40.22
2023-06-03T21:39:42.504Z,41.05
2023-06-03T21:42:11.283Z,40.60
2023-06-03T21:44:39.706Z,40.56
2023-06-03T21:47:10.380Z,40.23
2023-06-03T21:49:38.911Z,40.28
2023-06-03T21:52:07.434Z,40.76
2023-06-03T21:54:42.774Z,40.83
2023-06-03T21:57:11.559Z,41.04
2023-06-03T21:59:40.559Z,40.86
2023-06-03T22:02:09.941Z,40.90
2023-06-03T22:04:39.620Z,41.68
2023-06-03T22:07:08.220Z,44.06
2023-06-03T22:09:38.831Z,45.21
2023-06-03T22:12:08.126Z,47.38
2023-06-03T22:14:36.874Z,48.10
2023-06-03T22:17:05.051Z,47.69
2023-06-03T22:19:33.394Z,48.91
2023-06-03T22:22:01.711Z,48.85
2023-06-03T22:24:29.839Z,47.40
2023-06-03T22:26:59.184Z,47.36
2023-06-03T22:29:27.492Z,46.22
2023-06-03T22:31:55.546Z,47.10
2023-06-03T22:34:23.708Z,47.05
2023-06-03T22:36:52.115Z,47.36
2023-06-03T22:39:20.154Z,47.88
2023-06-03T22:41:48.571Z,48.01
2023-06-03T22:44:18.116Z,48.59
2023-06-03T22:46:46.582Z,48.77
2023-06-03T22:49:15.035Z,50.02
2023-06-03T22:51:43.431Z,49.59
2023-06-03T22:54:11.486Z,50.11
2023-06-03T22:56:40.065Z,50.28
2023-06-03T22:59:08.180Z,50.63
2023-06-03T23:01:37.598Z,50.85
2023-06-03T23:04:06.900Z,52.38
2023-06-03T23:06:35.446Z,53.57
2023-06-03T23:09:03.374Z,54.14
2023-06-03T23:11:31.990Z,55.29
2023-06-03T23:14:01.396Z,56.04
2023-06-03T23:16:29.916Z,55.99
2023-06-03T23:19:00.023Z,55.92
2023-06-03T23:21:31.334Z,56.06
2023-06-03T23:23:59.957Z,56.11
2023-06-03T23:26:28.523Z,56.03
2023-06-03T23:28:56.434Z,56.39
2023-06-03T23:31:24.929Z,56.33
2023-06-03T23:33:52.912Z,56.75
2023-06-03T23:36:22.266Z,57.34
2023-06-03T23:38:51.408Z,57.30
2023-06-03T23:41:19.727Z,57.90
2023-06-03T23:43:47.721Z,58.35
2023-06-03T23:46:16.417Z,58.62
2023-06-03T23:48:44.304Z,59.01
2023-06-03T23:51:12.412Z,58.81
2023-06-03T23:53:42.834Z,57.58
2023-06-03T23:56:10.715Z,57.68
2023-06-03T23:58:39.607Z,57.15
